Time;durP1;ratioP1;P1;durP2;ratioP2;P2;SDS_P1;SDS_P2;PMS_P1;PMS_P2;Temp;Humidity;BMP_temperature;BMP_pressure;BME280_temperature;BME280_humidity;BME280_pressure;Samples;Min_cycle;Max_cycle;Signal;HPM_P1;HPM_P2
2023/09/16 00:01:15;;;;;;;10.53;3.73;;;;;;;23.77;56.52;99173.28;5075509;28;20185;-88
2023/09/16 00:03:42;;;;;;;9.00;4.07;;;;;;;23.71;56.63;99182.00;5075682;28;20180;-87
2023/09/16 00:06:12;;;;;;;9.13;4.20;;;;;;;23.69;56.52;99183.97;5075526;28;20197;-88
2023/09/16 00:08:41;;;;;;;8.07;4.27;;;;;;;23.69;56.65;99194.69;5075725;28;20643;-87
2023/09/16 00:11:10;;;;;;;9.70;4.10;;;;;;;23.84;56.54;99202.94;5075448;28;20173;-87
2023/09/16 00:13:36;;;;;;;11.63;4.80;;;;;;;23.94;57.08;99217.03;5075268;28;20176;-88
2023/09/16 00:16:01;;;;;;;9.33;4.43;;;;;;;24.00;57.88;99215.53;5057596;28;20165;-88
2023/09/16 00:18:28;;;;;;;10.17;4.63;;;;;;;24.00;57.71;99227.09;5075313;28;20188;-87
2023/09/16 00:20:54;;;;;;;8.80;4.87;;;;;;;23.94;57.86;99217.03;5057581;28;20231;-88
2023/09/16 00:23:21;;;;;;;10.20;5.27;;;;;;;23.93;58.85;99225.19;5058092;28;20585;-88
2023/09/16 00:25:48;;;;;;;11.73;5.00;;;;;;;23.83;59.20;99242.25;5075395;28;20203;-87
2023/09/16 00:28:13;;;;;;;12.20;5.23;;;;;;;23.81;59.93;99243.41;5075141;28;20200;-88
2023/09/16 00:30:45;;;;;;;9.87;5.97;;;;;;;23.77;60.41;99242.88;5057506;28;20627;-88
2023/09/16 00:33:10;;;;;;;11.50;5.80;;;;;;;23.70;61.05;99241.88;5057687;28;20180;-87
2023/09/16 00:35:36;;;;;;;11.23;5.47;;;;;;;23.65;61.50;99238.84;5057131;28;20181;-87
2023/09/16 00:38:02;;;;;;;10.80;5.33;;;;;;;23.58;62.02;99247.66;5057293;28;20177;-87
2023/09/16 00:40:28;;;;;;;12.50;6.07;;;;;;;23.51;62.55;99241.25;5075741;28;20165;-87
2023/09/16 00:42:53;;;;;;;11.10;5.83;;;;;;;23.47;63.22;99243.44;5074634;28;20188;-87
2023/09/16 00:45:20;;;;;;;9.87;5.80;;;;;;;23.45;63.02;99242.75;5057070;28;20200;-87
2023/09/16 00:47:47;;;;;;;10.60;6.33;;;;;;;23.52;63.33;99242.94;5075045;28;20275;-87
2023/09/16 00:50:17;;;;;;;11.13;6.07;;;;;;;23.47;62.96;99240.75;5056848;28;20260;-87
2023/09/16 00:52:49;;;;;;;10.97;6.67;;;;;;;23.45;63.46;99234.75;5056758;28;20225;-87
2023/09/16 00:55:15;;;;;;;10.40;6.57;;;;;;;23.44;64.06;99241.06;5056777;28;20246;-87
2023/09/16 00:57:46;;;;;;;13.17;7.17;;;;;;;23.43;64.70;99241.22;5075178;28;20177;-87
2023/09/16 01:00:16;;;;;;;12.67;7.13;;;;;;;23.45;64.61;99236.56;5056954;28;20177;-86
2023/09/16 01:02:44;;;;;;;14.90;6.90;;;;;;;23.51;64.76;99255.47;5074267;28;20212;-87
2023/09/16 01:05:17;;;;;;;15.17;7.37;;;;;;;23.53;64.71;99250.00;5056714;28;20666;-87
2023/09/16 01:07:49;;;;;;;14.77;6.90;;;;;;;23.52;64.96;99257.16;5055675;28;20545;-87
2023/09/16 01:10:15;;;;;;;11.90;6.17;;;;;;;23.50;64.70;99251.16;5057677;28;20265;-87
2023/09/16 01:12:42;;;;;;;11.27;6.10;;;;;;;23.53;64.48;99255.34;5056883;28;20181;-87
2023/09/16 01:15:10;;;;;;;11.27;6.90;;;;;;;23.57;64.51;99256.69;5056928;28;20751;-87
2023/09/16 01:18:09;;;;;;;10.27;6.47;;;;;;;23.61;64.21;99264.22;5056887;28;20179;-87
2023/09/16 01:20:38;;;;;;;9.40;6.30;;;;;;;23.62;64.46;99265.91;5073723;28;20181;-87
2023/09/16 01:23:06;;;;;;;11.83;7.07;;;;;;;23.66;64.49;99261.09;5074030;28;20655;-87
2023/09/16 01:25:31;;;;;;;11.07;6.67;;;;;;;23.61;64.35;99258.88;5071795;28;20200;-87
2023/09/16 01:27:58;;;;;;;13.03;6.63;;;;;;;23.62;64.67;99260.56;5036504;28;20265;-87
2023/09/16 01:30:26;;;;;;;11.57;7.03;;;;;;;23.61;64.69;99264.22;5051036;28;20203;-87
2023/09/16 01:33:09;;;;;;;12.60;6.73;;;;;;;23.61;64.66;99261.56;5056313;28;20255;-87
2023/09/16 01:35:38;;;;;;;11.67;6.53;;;;;;;23.61;64.72;99274.13;5051577;28;20528;-87
2023/09/16 01:38:07;;;;;;;10.63;6.20;;;;;;;23.64;64.43;99279.97;5036260;28;20178;-87
2023/09/16 01:40:36;;;;;;;13.70;7.30;;;;;;;23.64;64.78;99284.47;5054311;28;20172;-87
2023/09/16 01:43:03;;;;;;;9.60;6.27;;;;;;;23.64;64.66;99292.50;5044940;28;20191;-87
2023/09/16 01:45:43;;;;;;;10.23;5.70;;;;;;;23.63;64.46;99281.00;5055992;28;20201;-87
2023/09/16 01:48:11;;;;;;;14.23;6.50;;;;;;;23.66;64.72;99277.16;5056043;28;20169;-87
2023/09/16 01:50:37;;;;;;;11.07;6.73;;;;;;;23.66;64.51;99282.50;5055653;28;20181;-87
2023/09/16 01:53:07;;;;;;;11.13;6.47;;;;;;;23.70;64.45;99286.53;5055872;28;20196;-87
2023/09/16 01:55:33;;;;;;;12.60;6.13;;;;;;;23.70;64.61;99286.53;5050624;28;20178;-87
2023/09/16 01:57:59;;;;;;;10.90;6.23;;;;;;;23.69;64.86;99283.00;5053792;28;20585;-87
2023/09/16 02:00:25;;;;;;;9.57;5.23;;;;;;;23.73;64.18;99281.69;5036063;28;20178;-87
2023/09/16 02:02:51;;;;;;;9.83;6.10;;;;;;;23.74;64.41;99288.72;5043354;28;20239;-87
2023/09/16 02:05:18;;;;;;;12.27;6.20;;;;;;;23.74;64.42;99291.38;5055736;28;20208;-87
2023/09/16 02:07:44;;;;;;;10.90;6.33;;;;;;;23.69;64.59;99283.00;5056031;28;20207;-87
2023/09/16 02:10:10;;;;;;;11.67;6.47;;;;;;;23.62;65.08;99281.13;5055776;28;20272;-87
2023/09/16 02:12:37;;;;;;;10.30;5.53;;;;;;;23.63;64.90;99283.66;5056041;28;20176;-87
2023/09/16 02:15:06;;;;;;;11.40;6.30;;;;;;;23.56;65.17;99285.28;5073030;28;20177;-88
2023/09/16 02:17:34;;;;;;;9.30;5.83;;;;;;;23.59;64.38;99290.31;5073563;28;20173;-87
2023/09/16 02:20:01;;;;;;;9.57;5.83;;;;;;;23.62;64.03;99276.63;5072949;28;20287;-87
2023/09/16 02:22:27;;;;;;;10.70;6.33;;;;;;;23.63;63.70;99288.19;5073479;28;20161;-87
2023/09/16 02:24:52;;;;;;;9.77;5.83;;;;;;;23.65;63.64;99283.50;5055490;28;20592;-87
2023/09/16 02:27:18;;;;;;;13.13;6.27;;;;;;;23.61;62.90;99284.81;5055372;28;20623;-87
2023/09/16 02:29:44;;;;;;;10.97;5.93;;;;;;;23.52;63.13;99289.28;5055297;28;20169;-87
2023/09/16 02:32:11;;;;;;;11.63;6.10;;;;;;;23.49;62.57;99289.59;5073141;28;20241;-87
2023/09/16 02:34:37;;;;;;;9.17;5.63;;;;;;;23.47;62.62;99288.91;5073376;28;20177;-87
2023/09/16 02:37:04;;;;;;;15.00;5.80;;;;;;;23.44;62.13;99296.41;5073392;28;20669;-87
2023/09/16 02:39:30;;;;;;;10.07;5.93;;;;;;;23.42;62.07;99291.25;5072972;28;20184;-88
2023/09/16 02:41:56;;;;;;;11.93;6.33;;;;;;;23.38;62.19;99297.03;5055371;28;20173;-87
2023/09/16 02:44:22;;;;;;;11.13;6.00;;;;;;;23.32;62.04;99303.00;5055384;28;20200;-87
2023/09/16 02:46:49;;;;;;;8.67;4.83;;;;;;;23.29;61.81;99300.63;5054964;28;20192;-87
2023/09/16 02:49:16;;;;;;;8.97;5.17;;;;;;;23.24;61.55;99293.09;5055567;28;20180;-88
2023/09/16 02:51:41;;;;;;;11.17;5.93;;;;;;;23.23;61.61;99297.59;5073295;28;20169;-87
2023/09/16 02:54:07;;;;;;;9.90;6.10;;;;;;;23.17;61.37;99300.03;5055509;28;20292;-87
2023/09/16 02:56:33;;;;;;;8.20;5.03;;;;;;;23.08;61.84;99291.16;5072976;28;20248;-87
2023/09/16 02:59:01;;;;;;;13.17;5.80;;;;;;;23.02;61.75;99286.41;5055229;28;20173;-87
2023/09/16 03:01:26;;;;;;;10.17;5.40;;;;;;;22.97;62.06;99291.38;5073146;28;20169;-87
2023/09/16 03:03:53;;;;;;;11.90;5.50;;;;;;;22.92;62.29;99295.50;5073037;28;20192;-87
2023/09/16 03:06:21;;;;;;;7.53;4.87;;;;;;;22.92;62.04;99295.50;5055116;28;20253;-87
2023/09/16 03:08:49;;;;;;;10.53;6.17;;;;;;;22.87;61.92;99292.47;5055433;28;20572;-87
2023/09/16 03:11:16;;;;;;;12.57;5.10;;;;;;;22.84;61.99;99292.78;5072765;28;20581;-87
2023/09/16 03:13:42;;;;;;;12.10;5.90;;;;;;;22.78;62.21;99299.56;5055047;28;20623;-87
2023/09/16 03:16:23;;;;;;;8.87;5.23;;;;;;;22.75;62.11;99297.19;5054798;28;20185;-87
2023/09/16 03:18:51;;;;;;;9.50;5.50;;;;;;;22.75;62.46;99301.69;5054979;28;20179;-87
2023/09/16 03:21:19;;;;;;;11.50;5.70;;;;;;;22.76;62.06;99298.88;5072769;28;20562;-87
2023/09/16 03:23:45;;;;;;;9.83;6.03;;;;;;;22.77;61.92;99294.38;5056039;28;20188;-87
2023/09/16 03:26:12;;;;;;;10.43;6.03;;;;;;;22.67;62.03;99298.97;5054753;28;20185;-87
2023/09/16 03:28:42;;;;;;;11.30;6.50;;;;;;;22.60;62.54;99298.69;5072596;28;20177;-87
2023/09/16 03:31:09;;;;;;;13.60;6.90;;;;;;;22.71;63.11;99293.16;5074374;28;20173;-87
2023/09/16 03:33:36;;;;;;;12.37;5.83;;;;;;;22.74;62.86;99290.19;5076302;28;20188;-87
2023/09/16 03:36:07;;;;;;;10.37;6.10;;;;;;;22.69;63.00;99287.16;5058892;28;20184;-87
2023/09/16 03:38:34;;;;;;;8.97;5.70;;;;;;;22.64;63.42;99298.28;5058327;28;20187;-88
2023/09/16 03:41:00;;;;;;;11.37;6.60;;;;;;;22.57;63.39;99297.19;5058731;28;20191;-87
2023/09/16 03:43:26;;;;;;;9.63;5.83;;;;;;;22.51;63.71;99300.44;5038522;28;20576;-87
2023/09/16 03:45:54;;;;;;;10.20;5.27;;;;;;;22.46;63.84;99301.88;5049587;28;20201;-87
2023/09/16 03:48:20;;;;;;;11.73;5.87;;;;;;;22.46;63.91;99310.75;5075941;28;20167;-87
2023/09/16 03:50:47;;;;;;;11.00;6.10;;;;;;;22.47;63.60;99315.13;5075920;28;20205;-87
2023/09/16 03:53:14;;;;;;;10.47;5.60;;;;;;;22.42;63.82;99317.41;5045130;28;20208;-87
2023/09/16 03:55:40;;;;;;;9.37;5.67;;;;;;;22.38;63.64;99312.53;5063127;28;20173;-88
2023/09/16 03:58:07;;;;;;;8.57;4.97;;;;;;;22.33;63.13;99325.47;5059008;28;20610;-87
2023/09/16 04:00:32;;;;;;;10.30;5.43;;;;;;;22.31;62.82;99317.59;5076158;28;20255;-87
2023/09/16 04:02:59;;;;;;;12.77;6.07;;;;;;;22.26;62.68;99332.41;5058038;28;20197;-87
2023/09/16 04:05:27;;;;;;;10.07;5.80;;;;;;;22.18;62.80;99329.63;5058222;28;20662;-87
2023/09/16 04:07:53;;;;;;;10.93;6.17;;;;;;;22.16;62.37;99326.28;5075630;28;20188;-87
2023/09/16 04:10:19;;;;;;;9.67;5.80;;;;;;;22.12;62.53;99333.72;5058784;28;20255;-88
2023/09/16 04:12:46;;;;;;;11.23;6.00;;;;;;;22.03;63.00;99332.81;5057867;28;20569;-87
2023/09/16 04:15:12;;;;;;;15.23;6.23;;;;;;;21.99;63.30;99331.41;5075195;28;20259;-87
2023/09/16 04:17:38;;;;;;;11.67;5.90;;;;;;;21.98;63.18;99335.09;5075774;28;20176;-87
2023/09/16 04:20:06;;;;;;;10.80;5.60;;;;;;;21.99;63.46;99338.56;5075397;28;20576;-87
2023/09/16 04:22:32;;;;;;;11.83;6.27;;;;;;;21.97;63.56;99344.06;5075194;28;20275;-87
2023/09/16 04:24:57;;;;;;;9.67;5.60;;;;;;;21.96;63.42;99336.19;5057759;28;20267;-87
2023/09/16 04:27:24;;;;;;;10.17;5.77;;;;;;;21.97;63.57;99337.88;5075016;28;20177;-88
2023/09/16 04:29:50;;;;;;;10.63;5.13;;;;;;;21.96;64.06;99333.53;5057142;28;20184;-87
2023/09/16 04:32:16;;;;;;;13.23;6.70;;;;;;;21.91;64.43;99335.78;5057620;28;20218;-87
2023/09/16 04:34:43;;;;;;;13.80;5.93;;;;;;;21.87;64.90;99342.44;5075307;28;20177;-87
2023/09/16 04:37:08;;;;;;;9.67;5.27;;;;;;;21.88;65.18;99339.59;5057221;28;20691;-87
2023/09/16 04:39:35;;;;;;;11.13;6.13;;;;;;;21.95;65.39;99335.38;5057384;28;20188;-87
2023/09/16 04:42:02;;;;;;;9.03;5.63;;;;;;;21.98;65.48;99344.91;5058158;28;20330;-87
2023/09/16 04:44:29;;;;;;;9.60;5.63;;;;;;;22.01;65.50;99342.78;5056828;28;20662;-87
2023/09/16 04:46:55;;;;;;;8.70;4.57;;;;;;;22.09;65.67;99344.69;5075075;28;20208;-87
2023/09/16 04:49:23;;;;;;;11.93;6.27;;;;;;;22.15;65.78;99341.44;5057443;28;20181;-87
2023/09/16 04:51:48;;;;;;;11.20;5.50;;;;;;;22.26;65.54;99338.59;5057797;28;20181;-87
2023/09/16 04:54:15;;;;;;;8.47;5.00;;;;;;;22.36;65.45;99342.03;5057085;28;20256;-87
2023/09/16 04:56:40;;;;;;;13.13;6.60;;;;;;;22.45;65.19;99334.97;5056636;28;20181;-87
2023/09/16 04:59:07;;;;;;;8.70;5.60;;;;;;;22.46;65.15;99324.09;5056967;28;20184;-87
2023/09/16 05:01:34;;;;;;;9.87;6.83;;;;;;;22.48;65.21;99332.00;5056774;28;20213;-87
2023/09/16 05:03:59;;;;;;;9.50;6.20;;;;;;;22.63;64.59;99331.34;5057140;28;20625;-87
2023/09/16 05:06:26;;;;;;;11.03;5.83;;;;;;;22.71;64.14;99329.72;5074423;28;20201;-87
2023/09/16 05:08:55;;;;;;;9.60;6.07;;;;;;;22.72;63.83;99332.25;5056553;28;20329;-87
2023/09/16 05:11:22;;;;;;;10.57;5.83;;;;;;;22.77;64.21;99337.16;5057050;28;20204;-87
2023/09/16 05:13:50;;;;;;;10.80;6.27;;;;;;;22.93;63.97;99343.47;5074435;28;20559;-87
2023/09/16 05:16:17;;;;;;;13.63;6.63;;;;;;;23.11;63.68;99338.13;5056928;28;20177;-87
2023/09/16 05:18:44;;;;;;;9.00;5.60;;;;;;;23.25;63.21;99348.25;5056945;28;20718;-87
2023/09/16 05:21:10;;;;;;;9.87;5.90;;;;;;;23.42;62.62;99346.56;5056584;28;20192;-87
2023/09/16 05:23:37;;;;;;;11.73;6.43;;;;;;;23.53;62.43;99347.13;5074278;28;20173;-87
2023/09/16 05:26:05;;;;;;;13.70;6.90;;;;;;;23.57;62.08;99347.69;5056086;28;20201;-87
2023/09/16 05:28:32;;;;;;;11.13;6.80;;;;;;;23.68;61.71;99356.28;5056474;28;20185;-87
2023/09/16 05:30:58;;;;;;;24.27;10.30;;;;;;;23.83;61.33;99348.50;5056750;28;20184;-87
2023/09/16 05:33:24;;;;;;;49.63;18.20;;;;;;;24.00;61.13;99357.47;5056317;28;20181;-87
2023/09/16 05:35:51;;;;;;;24.37;9.93;;;;;;;24.08;60.83;99357.50;5056602;28;20184;-87
2023/09/16 05:38:17;;;;;;;18.97;7.90;;;;;;;24.24;60.32;99357.59;5073573;28;20184;-87
2023/09/16 05:40:44;;;;;;;19.23;6.83;;;;;;;24.27;60.23;99357.25;5056170;28;20179;-87
2023/09/16 05:43:09;;;;;;;15.17;7.43;;;;;;;24.38;59.93;99373.03;5056991;28;20181;-87
2023/09/16 05:45:36;;;;;;;16.87;8.43;;;;;;;24.54;60.06;99370.41;5056190;28;20635;-87
2023/09/16 05:48:04;;;;;;;16.73;7.70;;;;;;;24.71;59.43;99365.94;5055992;28;20543;-88
2023/09/16 05:50:30;;;;;;;10.40;6.10;;;;;;;24.85;59.09;99371.53;5056023;28;20177;-87
2023/09/16 05:52:56;;;;;;;13.40;6.50;;;;;;;25.22;58.13;99371.06;5055596;28;20646;-88
2023/09/16 05:55:21;;;;;;;9.70;5.80;;;;;;;25.68;57.38;99372.22;5056884;28;20192;-87
2023/09/16 05:57:47;;;;;;;7.53;5.07;;;;;;;26.06;55.97;99360.69;5056479;28;20181;-87
2023/09/16 06:00:13;;;;;;;9.47;5.50;;;;;;;26.37;55.57;99363.44;5073527;28;20177;-87
2023/09/16 06:02:41;;;;;;;7.40;5.07;;;;;;;26.65;53.85;99361.94;5056665;28;20629;-88
2023/09/16 06:05:08;;;;;;;11.90;5.50;;;;;;;27.25;52.99;99358.53;5073640;28;20196;-87
2023/09/16 06:07:34;;;;;;;12.43;4.83;;;;;;;27.95;50.14;99350.94;5056101;28;20180;-88
2023/09/16 06:09:59;;;;;;;11.17;5.30;;;;;;;28.72;48.88;99356.75;5055969;28;20259;-87
2023/09/16 06:12:26;;;;;;;10.13;5.65;;;;;;;29.20;46.37;99353.28;5072787;28;20732;-87
2023/09/16 06:14:53;;;;;;;8.75;5.13;;;;;;;29.78;45.69;99347.56;5055641;28;20192;-88
2023/09/16 06:17:22;;;;;;;9.20;5.07;;;;;;;30.33;44.73;99353.88;5073080;28;20280;-88
2023/09/16 06:19:54;;;;;;;6.38;4.13;;;;;;;30.89;42.80;99351.81;5073373;28;20169;-87
2023/09/16 06:22:24;;;;;;;7.70;4.05;;;;;;;31.61;40.92;99354.63;5055407;28;20188;-88
2023/09/16 06:24:53;;;;;;;7.75;3.95;;;;;;;32.12;39.27;99358.31;5073759;28;20176;-88
2023/09/16 06:27:19;;;;;;;7.10;4.30;;;;;;;32.42;39.52;99355.06;5072804;28;20177;-88
2023/09/16 06:29:46;;;;;;;8.48;4.10;;;;;;;32.36;40.09;99361.38;5073034;28;20661;-88
2023/09/16 06:32:14;;;;;;;13.90;6.93;;;;;;;32.83;38.60;99369.09;5055560;28;20173;-89
2023/09/16 06:34:40;;;;;;;10.75;4.15;;;;;;;33.20;37.00;99370.13;5055497;28;20219;-88
2023/09/16 06:37:07;;;;;;;7.25;4.28;;;;;;;33.48;36.99;99377.84;5055258;28;20184;-88
2023/09/16 06:39:34;;;;;;;10.48;4.45;;;;;;;33.74;36.91;99374.94;5055294;28;20276;-88
2023/09/16 06:42:01;;;;;;;6.93;3.88;;;;;;;33.91;36.13;99384.19;5055199;28;20184;-88
2023/09/16 06:44:27;;;;;;;8.55;4.45;;;;;;;34.17;35.55;99383.94;5055387;28;20252;-88
2023/09/16 06:46:53;;;;;;;6.85;3.85;;;;;;;34.29;34.90;99384.84;5072809;28;20239;-89
2023/09/16 06:49:20;;;;;;;6.20;4.05;;;;;;;34.45;34.52;99386.97;5072981;28;20259;-89
2023/09/16 06:51:45;;;;;;;8.48;4.22;;;;;;;34.69;34.01;99396.13;5072998;28;20173;-89
2023/09/16 06:54:12;;;;;;;8.40;4.18;;;;;;;34.88;33.97;99391.47;5072643;28;20558;-89
2023/09/16 06:56:39;;;;;;;7.90;3.80;;;;;;;35.04;33.49;99402.53;5072898;28;20169;-89
2023/09/16 06:59:04;;;;;;;6.43;3.63;;;;;;;35.09;33.36;99401.88;5072812;28;20260;-88
2023/09/16 07:01:32;;;;;;;5.00;3.25;;;;;;;35.22;33.73;99398.97;5072865;28;20201;-89
2023/09/16 07:03:58;;;;;;;7.63;4.20;;;;;;;35.27;33.06;99401.81;5072788;28;20251;-88
2023/09/16 07:06:24;;;;;;;9.43;3.50;;;;;;;35.29;33.54;99393.38;5076841;28;20204;-89
2023/09/16 07:08:49;;;;;;;7.28;4.00;;;;;;;35.38;33.30;99401.00;5058992;28;20173;-89
2023/09/16 07:11:17;;;;;;;6.13;4.15;;;;;;;35.25;33.92;99403.91;5059463;28;20185;-89
2023/09/16 07:13:46;;;;;;;7.13;3.45;;;;;;;35.12;33.62;99406.84;5076951;28;20246;-88
2023/09/16 07:16:13;;;;;;;7.20;4.07;;;;;;;34.88;33.60;99408.63;5059241;28;20181;-88
2023/09/16 07:18:40;;;;;;;6.75;4.30;;;;;;;34.84;33.02;99407.44;5077512;28;20334;-92
2023/09/16 07:21:06;;;;;;;6.95;4.38;;;;;;;34.57;33.70;99412.38;5052149;28;20193;-90
2023/09/16 07:23:33;;;;;;;6.80;4.10;;;;;;;34.46;35.16;99417.75;5056441;28;20177;-88
2023/09/16 07:25:59;;;;;;;7.30;4.10;;;;;;;34.44;34.75;99411.69;5064635;28;20299;-89
2023/09/16 07:28:27;;;;;;;7.00;3.60;;;;;;;34.44;34.36;99408.94;5076358;28;20177;-88
2023/09/16 07:30:55;;;;;;;7.28;3.90;;;;;;;34.32;33.96;99418.94;5059476;28;20217;-89
2023/09/16 07:33:21;;;;;;;4.90;3.25;;;;;;;33.98;33.99;99415.72;5058584;28;20582;-89
2023/09/16 07:35:51;;;;;;;5.97;3.42;;;;;;;33.79;34.89;99418.59;5076241;28;20169;-89
2023/09/16 07:38:16;;;;;;;6.50;4.20;;;;;;;33.84;35.01;99421.50;5076229;28;20226;-89
2023/09/16 07:40:43;;;;;;;4.43;3.03;;;;;;;33.87;35.17;99421.88;5076062;28;20169;-89
2023/09/16 07:43:11;;;;;;;6.97;3.33;;;;;;;33.92;35.00;99421.19;5076141;28;20259;-89
2023/09/16 07:45:38;;;;;;;7.05;3.60;;;;;;;34.10;33.79;99420.44;5070353;28;20216;-89
2023/09/16 07:48:07;;;;;;;8.68;4.00;;;;;;;34.21;34.46;99423.25;5038673;28;20177;-89
2023/09/16 07:50:34;;;;;;;5.72;3.83;;;;;;;34.30;33.75;99421.91;5038339;28;20553;-89
2023/09/16 07:53:00;;;;;;;7.75;3.58;;;;;;;34.27;33.92;99416.91;5055803;28;20589;-88
2023/09/16 07:55:25;;;;;;;7.30;3.40;;;;;;;34.38;32.83;99413.41;5039156;28;20185;-89
2023/09/16 07:57:51;;;;;;;7.40;4.22;;;;;;;34.53;32.49;99416.59;5055795;28;20328;-88
2023/09/16 08:00:16;;;;;;;6.65;3.50;;;;;;;34.54;31.87;99412.81;5038220;28;20239;-89
2023/09/16 08:02:41;;;;;;;7.15;3.67;;;;;;;34.51;32.17;99413.25;5055994;28;20169;-90
2023/09/16 08:05:07;;;;;;;7.75;3.38;;;;;;;34.56;32.16;99413.47;5055963;28;20208;-89
2023/09/16 08:07:34;;;;;;;6.22;3.47;;;;;;;34.42;31.38;99413.78;5059401;28;20216;-88
2023/09/16 08:10:21;;;;;;;6.50;3.63;;;;;;;34.12;32.97;99415.63;5075806;28;20169;-90
2023/09/16 08:12:47;;;;;;;6.68;3.53;;;;;;;33.85;32.96;99420.44;5075252;28;20650;-88
2023/09/16 08:15:13;;;;;;;6.35;3.25;;;;;;;33.71;33.72;99418.88;5057852;28;20275;-88
2023/09/16 08:17:40;;;;;;;6.88;3.65;;;;;;;33.66;33.80;99429.59;5057146;28;20183;-88
2023/09/16 08:20:07;;;;;;;5.78;3.45;;;;;;;33.66;34.41;99429.59;5075103;28;20177;-89
2023/09/16 08:22:34;;;;;;;8.07;3.35;;;;;;;33.49;33.41;99433.91;5075373;28;20626;-91
2023/09/16 08:25:04;;;;;;;5.85;3.00;;;;;;;33.18;35.28;99435.56;5075596;28;20210;-88
2023/09/16 08:27:30;;;;;;;5.65;3.10;;;;;;;33.28;34.01;99441.34;5057570;28;20249;-91
2023/09/16 08:29:55;;;;;;;7.18;3.40;;;;;;;33.25;33.77;99440.97;5075078;28;20177;-90
2023/09/16 08:32:24;;;;;;;9.25;3.78;;;;;;;33.26;33.71;99440.72;5057809;28;20650;-89
2023/09/16 08:34:50;;;;;;;8.45;3.55;;;;;;;33.09;34.48;99446.91;5075469;28;20175;-89
2023/09/16 08:37:17;;;;;;;7.20;3.38;;;;;;;33.09;35.09;99450.47;5057332;28;20181;-88
2023/09/16 08:39:43;;;;;;;5.55;3.30;;;;;;;33.14;35.20;99456.06;5074941;28;20674;-88
2023/09/16 08:42:17;;;;;;;6.20;4.32;;;;;;;32.89;35.77;99457.81;5057237;28;20338;-88
2023/09/16 08:44:44;;;;;;;9.77;4.05;;;;;;;32.63;36.68;99461.50;5075072;28;20523;-91
2023/09/16 08:47:14;;;;;;;7.90;4.35;;;;;;;32.47;37.60;99456.50;5074652;28;20238;-89
2023/09/16 08:49:52;;;;;;;7.72;4.60;;;;;;;32.37;37.91;99455.28;5075678;28;20649;-88
2023/09/16 08:52:20;;;;;;;8.68;4.80;;;;;;;32.04;38.61;99458.91;5074579;28;20183;-88
2023/09/16 08:54:48;;;;;;;9.75;4.32;;;;;;;32.01;38.61;99464.75;5074460;28;20190;-88
2023/09/16 08:57:16;;;;;;;7.57;4.03;;;;;;;31.91;38.64;99458.88;5074645;28;20250;-87
2023/09/16 08:59:44;;;;;;;12.60;5.03;;;;;;;31.97;38.40;99457.22;5074692;28;20188;-88
2023/09/16 09:02:11;;;;;;;9.23;4.25;;;;;;;31.85;38.04;99459.72;5056895;28;20264;-88
2023/09/16 09:04:39;;;;;;;10.60;4.45;;;;;;;31.75;38.65;99448.44;5074485;28;20177;-87
2023/09/16 09:07:08;;;;;;;7.20;4.68;;;;;;;31.57;39.32;99446.38;5074702;28;20203;-88
2023/09/16 09:09:34;;;;;;;10.45;4.95;;;;;;;31.29;39.79;99450.25;5074426;28;20192;-88
2023/09/16 09:12:01;;;;;;;9.23;5.32;;;;;;;31.16;40.42;99451.03;5074150;28;20185;-88
2023/09/16 09:14:30;;;;;;;11.20;6.63;;;;;;;31.24;40.37;99453.56;5057073;28;20215;-87
2023/09/16 09:17:00;;;;;;;9.75;5.03;;;;;;;31.31;40.28;99459.00;5074413;28;20177;-87
2023/09/16 09:19:26;;;;;;;12.18;5.20;;;;;;;31.39;39.60;99453.41;5074212;28;20189;-89
2023/09/16 09:21:56;;;;;;;11.13;5.18;;;;;;;31.30;40.14;99450.03;5074247;28;20181;-88
2023/09/16 09:24:22;;;;;;;13.00;5.00;;;;;;;31.00;40.50;99451.44;5074284;28;20616;-88
2023/09/16 09:26:48;;;;;;;11.30;5.07;;;;;;;31.01;40.01;99459.34;5073955;28;20227;-89
2023/09/16 09:29:15;;;;;;;8.63;5.53;;;;;;;31.00;39.94;99457.66;5073179;28;20692;-89
2023/09/16 09:31:42;;;;;;;10.25;5.13;;;;;;;30.58;41.22;99457.91;5073657;28;20208;-88
2023/09/16 09:34:17;;;;;;;7.28;4.82;;;;;;;30.40;40.99;99454.88;5073934;28;20203;-90
2023/09/16 09:36:45;;;;;;;9.20;5.30;;;;;;;30.39;41.22;99458.63;5074466;28;20168;-88
2023/09/16 09:39:10;;;;;;;11.07;6.32;;;;;;;30.47;41.67;99463.88;5073892;28;20177;-87
2023/09/16 09:41:46;;;;;;;9.25;5.43;;;;;;;30.13;42.37;99459.28;5073631;28;20607;-87
2023/09/16 09:44:13;;;;;;;7.15;4.68;;;;;;;30.17;42.06;99455.13;5073009;28;20703;-88
2023/09/16 09:46:39;;;;;;;7.18;4.30;;;;;;;29.96;42.43;99457.03;5073691;28;20242;-88
2023/09/16 09:49:05;;;;;;;7.30;4.22;;;;;;;29.45;43.22;99450.97;5073791;28;20177;-87
2023/09/16 09:51:32;;;;;;;8.98;5.88;;;;;;;29.56;43.28;99461.28;5055838;28;20280;-88
2023/09/16 09:53:59;;;;;;;11.23;5.97;;;;;;;29.27;43.91;99459.53;5073465;28;20197;-87
2023/09/16 09:56:25;;;;;;;12.50;5.97;;;;;;;29.18;44.50;99457.94;5073567;28;20169;-87
2023/09/16 09:58:51;;;;;;;11.77;6.80;;;;;;;28.96;45.04;99465.16;5073555;28;20181;-87
2023/09/16 10:01:18;;;;;;;10.93;6.07;;;;;;;28.79;45.46;99455.63;5073470;28;20173;-87
2023/09/16 10:03:48;;;;;;;11.02;5.63;;;;;;;28.78;45.57;99459.34;5073121;28;20177;-88
2023/09/16 10:06:16;;;;;;;9.95;5.55;;;;;;;28.63;45.70;99464.78;5073133;28;20239;-87
2023/09/16 10:08:42;;;;;;;13.75;6.03;;;;;;;28.54;46.41;99463.16;5073163;28;20263;-86
2023/09/16 10:11:10;;;;;;;9.48;5.60;;;;;;;28.49;46.45;99462.03;5073945;28;20197;-86
2023/09/16 10:13:37;;;;;;;9.35;5.72;;;;;;;28.62;46.29;99463.09;5073197;28;20263;-88
2023/09/16 10:16:05;;;;;;;8.80;5.20;;;;;;;28.68;45.90;99455.28;5073163;28;20637;-87
2023/09/16 10:18:30;;;;;;;7.25;4.93;;;;;;;28.59;46.25;99458.03;5073191;28;20173;-86
2023/09/16 10:20:57;;;;;;;12.32;5.25;;;;;;;28.30;46.75;99454.53;5073267;28;20538;-87
2023/09/16 10:23:24;;;;;;;11.05;5.72;;;;;;;28.23;46.96;99449.03;5056465;28;20184;-87
2023/09/16 10:25:50;;;;;;;10.48;5.28;;;;;;;28.27;46.93;99455.75;5055235;28;20201;-87
2023/09/16 10:28:16;;;;;;;10.30;5.50;;;;;;;28.15;47.74;99451.81;5072736;28;20181;-87
2023/09/16 10:30:43;;;;;;;9.57;5.25;;;;;;;28.16;47.62;99439.19;5055537;28;20173;-86
2023/09/16 10:33:11;;;;;;;16.10;5.47;;;;;;;28.24;47.52;99445.31;5073073;28;20181;-87
2023/09/16 10:35:39;;;;;;;16.25;6.18;;;;;;;28.23;47.21;99451.72;5055742;28;20188;-86
2023/09/16 10:38:06;;;;;;;8.05;5.22;;;;;;;28.29;47.27;99450.16;5072915;28;20177;-87
2023/09/16 10:40:34;;;;;;;9.80;5.47;;;;;;;28.21;47.23;99443.00;5059776;28;20184;-86
2023/09/16 10:43:01;;;;;;;9.73;5.35;;;;;;;28.12;48.08;99438.72;5061860;28;20238;-85
2023/09/16 10:45:28;;;;;;;14.40;5.75;;;;;;;28.08;48.01;99440.09;5061998;28;20283;-86
2023/09/16 10:47:55;;;;;;;15.95;5.95;;;;;;;27.94;48.34;99438.19;5061650;28;20259;-86
2023/09/16 10:50:29;;;;;;;10.93;5.30;;;;;;;27.83;48.49;99433.28;5079680;28;20188;-86
2023/09/16 10:53:15;;;;;;;9.50;4.78;;;;;;;27.85;49.59;99437.47;5062268;28;20595;-86
2023/09/16 10:56:09;;;;;;;16.25;5.72;;;;;;;27.64;52.40;99442.69;5061812;28;20187;-86
2023/09/16 10:58:50;;;;;;;15.53;5.97;;;;;;;27.52;53.10;99441.44;5061752;28;20177;-87
2023/09/16 11:01:27;;;;;;;15.27;6.78;;;;;;;27.41;54.17;99436.50;5061816;28;20215;-87
2023/09/16 11:03:57;;;;;;;11.18;6.45;;;;;;;27.33;55.43;99434.66;5079742;28;20265;-87
2023/09/16 11:06:24;;;;;;;16.43;7.03;;;;;;;27.15;56.99;99428.72;5062960;28;20207;-86
2023/09/16 11:08:51;;;;;;;12.05;7.18;;;;;;;27.14;57.61;99427.09;5062100;28;20173;-86
2023/09/16 11:11:18;;;;;;;12.25;6.82;;;;;;;27.11;58.40;99424.75;5044585;28;20213;-87
2023/09/16 11:13:44;;;;;;;12.48;7.22;;;;;;;27.15;58.48;99423.34;5042133;28;20204;-87
2023/09/16 11:16:13;;;;;;;12.23;7.35;;;;;;;27.19;58.50;99426.53;5049745;28;20222;-87
2023/09/16 11:18:42;;;;;;;12.48;7.55;;;;;;;27.17;58.66;99421.34;5079304;28;20661;-90
2023/09/16 11:21:11;;;;;;;15.55;7.95;;;;;;;26.94;60.13;99415.09;5079318;28;20177;-88
2023/09/16 11:23:38;;;;;;;13.25;7.50;;;;;;;26.87;60.49;99416.81;5079224;28;20188;-88
2023/09/16 11:26:04;;;;;;;12.50;7.57;;;;;;;26.69;61.66;99413.53;5079538;28;20211;-89
2023/09/16 11:28:31;;;;;;;14.23;7.75;;;;;;;26.56;62.34;99413.25;5079794;28;20207;-88
2023/09/16 11:30:59;;;;;;;13.00;8.32;;;;;;;26.57;62.65;99404.19;5078817;28;20176;-89